createdAt,value
2022-09-16T00:01:31.837Z,99387.19
2022-09-16T00:03:58.343Z,99420.41
2022-09-16T00:06:28.117Z,99456.56
2022-09-16T00:08:55.572Z,99456.56
2022-09-16T00:11:22.730Z,99445.78
2022-09-16T00:13:49.390Z,99387.66
2022-09-16T00:16:27.552Z,99458.47
2022-09-16T00:18:59.829Z,99460.78
2022-09-16T00:21:28.506Z,99472.50
2022-09-16T00:23:58.124Z,99432.38
2022-09-16T00:26:25.858Z,99419.66
2022-09-16T00:28:52.581Z,99462.34
2022-09-16T00:31:19.610Z,99453.88
2022-09-16T00:33:46.426Z,99447.13
2022-09-16T00:36:15.839Z,99465.03
2022-09-16T00:38:43.213Z,99462.84
2022-09-16T00:41:16.349Z,99453.97
2022-09-16T00:43:54.939Z,99468.63
2022-09-16T00:46:28.308Z,99426.31
2022-09-16T00:48:55.067Z,99457.00
2022-09-16T00:51:22.768Z,99462.56
2022-09-16T00:53:59.954Z,99435.28
2022-09-16T00:56:29.221Z,99477.31
2022-09-16T00:59:06.195Z,99462.19
2022-09-16T01:01:32.906Z,99464.84
2022-09-16T01:04:04.076Z,99485.28
2022-09-16T01:06:32.339Z,99357.00
2022-09-16T01:08:59.943Z,99456.66
2022-09-16T01:11:26.967Z,99471.41
2022-09-16T01:13:53.877Z,99471.97
2022-09-16T01:16:34.344Z,99458.69
2022-09-16T01:19:19.062Z,99478.06
2022-09-16T01:22:00.537Z,99481.19
2022-09-16T01:24:34.420Z,99474.78
2022-09-16T01:27:25.609Z,99473.72
2022-09-16T01:30:21.114Z,99467.19
2022-09-16T01:33:08.774Z,99469.59
2022-09-16T01:35:47.947Z,99444.22
2022-09-16T01:38:26.141Z,99449.28
2022-09-16T01:41:13.815Z,99468.25
2022-09-16T01:44:32.892Z,99465.25
2022-09-16T01:47:03.260Z,99477.34
2022-09-16T01:49:38.978Z,99474.19
2022-09-16T01:52:11.679Z,99453.75
2022-09-16T01:54:41.604Z,99486.41
2022-09-16T01:57:13.807Z,99479.25
2022-09-16T01:59:54.364Z,99462.47
2022-09-16T02:02:32.899Z,99453.88
2022-09-16T02:05:03.724Z,99475.63
2022-09-16T02:07:35.161Z,99478.78
2022-09-16T02:10:20.312Z,99462.56
2022-09-16T02:12:50.979Z,99456.22
2022-09-16T02:15:22.596Z,99480.63
2022-09-16T02:17:56.658Z,99455.88
2022-09-16T02:20:27.384Z,99483.91
2022-09-16T02:23:09.632Z,99485.72
2022-09-16T02:25:39.533Z,99489.44
2022-09-16T02:28:13.171Z,99473.69
2022-09-16T02:30:45.053Z,99489.69
2022-09-16T02:33:15.163Z,99484.47
2022-09-16T02:35:47.668Z,99480.84
2022-09-16T02:38:34.973Z,99479.72
2022-09-16T02:41:02.261Z,99505.00
2022-09-16T02:43:29.704Z,99478.19
2022-09-16T02:46:02.376Z,99495.00
2022-09-16T02:48:35.633Z,99488.78
2022-09-16T02:51:23.988Z,99502.19
2022-09-16T02:54:03.117Z,99478.13
2022-09-16T02:56:34.541Z,99492.31
2022-09-16T02:59:02.589Z,99400.91
2022-09-16T03:01:32.313Z,99476.72
2022-09-16T03:03:58.832Z,99490.63
2022-09-16T03:06:27.567Z,99484.09
2022-09-16T03:08:58.541Z,99473.22
2022-09-16T03:11:49.904Z,99472.13
2022-09-16T03:14:19.475Z,99476.13
2022-09-16T03:17:02.944Z,99469.34
2022-09-16T03:19:48.166Z,99482.06
2022-09-16T03:22:24.275Z,99483.72
2022-09-16T03:25:16.903Z,99457.16
2022-09-16T03:28:09.055Z,99476.13
2022-09-16T03:30:43.588Z,99464.50
2022-09-16T03:33:20.850Z,99441.91
2022-09-16T03:35:49.740Z,99477.56
2022-09-16T03:38:18.652Z,99455.59
2022-09-16T03:40:48.452Z,99452.56
2022-09-16T03:43:16.647Z,99453.41
2022-09-16T03:45:43.976Z,99455.59
2022-09-16T03:48:12.357Z,99442.50
2022-09-16T03:50:39.014Z,99422.34
2022-09-16T03:53:05.825Z,99428.25
2022-09-16T03:55:32.480Z,99409.31
2022-09-16T03:57:59.117Z,99420.06
2022-09-16T04:00:25.770Z,99436.34
2022-09-16T04:02:52.470Z,99447.13
2022-09-16T04:05:19.081Z,99446.03
2022-09-16T04:07:45.887Z,99442.50
2022-09-16T04:10:12.695Z,99452.44
2022-09-16T04:12:39.305Z,99451.47
2022-09-16T04:15:06.648Z,99472.59
2022-09-16T04:17:34.133Z,99469.59
2022-09-16T04:20:01.211Z,99471.66
2022-09-16T04:22:31.835Z,99453.03
2022-09-16T04:24:58.508Z,99435.50
2022-09-16T04:27:25.124Z,99455.47
2022-09-16T04:29:51.729Z,99443.25
2022-09-16T04:32:18.387Z,99471.66
2022-09-16T04:34:45.806Z,99475.41
2022-09-16T04:37:12.460Z,99492.78
2022-09-16T04:39:39.086Z,99491.88
2022-09-16T04:42:07.032Z,99502.25
2022-09-16T04:44:33.859Z,99482.91
2022-09-16T04:47:00.623Z,99479.16
2022-09-16T04:49:27.263Z,99499.47
2022-09-16T04:51:53.959Z,99498.28
2022-09-16T04:54:20.623Z,99495.38
2022-09-16T04:56:47.263Z,99480.84
2022-09-16T04:59:13.875Z,99506.63
2022-09-16T05:01:40.781Z,99498.38
2022-09-16T05:04:08.043Z,99529.72
2022-09-16T05:06:37.072Z,99526.69
2022-09-16T05:09:04.516Z,99539.38
2022-09-16T05:11:33.962Z,99538.16
2022-09-16T05:14:02.515Z,99539.13
2022-09-16T05:16:29.938Z,99523.19
2022-09-16T05:18:58.664Z,99526.44
2022-09-16T05:21:27.433Z,99519.66
2022-09-16T05:23:56.001Z,99530.53
2022-09-16T05:26:25.604Z,99506.97
2022-09-16T05:28:52.799Z,99530.91
2022-09-16T05:31:25.315Z,99486.28
2022-09-16T05:34:13.599Z,99534.91
2022-09-16T05:36:43.793Z,99548.22
2022-09-16T05:39:22.736Z,99533.47
2022-09-16T05:41:50.756Z,99546.66
2022-09-16T05:44:17.388Z,99537.94
2022-09-16T05:46:44.004Z,99547.22
2022-09-16T05:49:11.056Z,99566.38
2022-09-16T05:51:39.133Z,99571.56
2022-09-16T05:54:06.031Z,99567.22
2022-09-16T05:56:33.053Z,99486.50
2022-09-16T05:59:01.028Z,99559.38
2022-09-16T06:01:31.019Z,99558.16
2022-09-16T06:03:58.399Z,99530.69
2022-09-16T06:06:33.685Z,99472.16
2022-09-16T06:09:05.999Z,99549.69
2022-09-16T06:11:37.101Z,99565.03
2022-09-16T06:14:04.230Z,99552.00
2022-09-16T06:16:33.258Z,99540.00
2022-09-16T06:19:02.912Z,99557.91
2022-09-16T06:21:29.812Z,99567.47
2022-09-16T06:23:57.151Z,99565.41
2022-09-16T06:26:26.043Z,99565.31
2022-09-16T06:28:53.596Z,99569.50
2022-09-16T06:31:23.220Z,99565.75
2022-09-16T06:33:50.591Z,99578.56
2022-09-16T06:36:20.742Z,99584.03
2022-09-16T06:38:48.029Z,99573.63
2022-09-16T06:41:15.982Z,99559.31
2022-09-16T06:43:43.131Z,99540.13
2022-09-16T06:46:16.255Z,99515.09
2022-09-16T06:48:45.225Z,99557.50
2022-09-16T06:51:17.270Z,99519.31
2022-09-16T06:53:45.015Z,99563.91
2022-09-16T06:56:14.189Z,99553.63
2022-09-16T06:58:42.940Z,99571.38
2022-09-16T07:01:10.977Z,99569.22
2022-09-16T07:03:39.829Z,99548.19
2022-09-16T07:06:07.416Z,99561.44
2022-09-16T07:08:35.626Z,99581.91
2022-09-16T07:11:04.154Z,99574.44
2022-09-16T07:13:31.248Z,99558.25
2022-09-16T07:16:13.004Z,99566.13
2022-09-16T07:18:41.355Z,99566.13
2022-09-16T07:21:16.962Z,99571.19
2022-09-16T07:23:44.555Z,99583.19
2022-09-16T07:26:14.001Z,99578.00
2022-09-16T07:28:42.026Z,99565.41
2022-09-16T07:31:18.758Z,99578.72
2022-09-16T07:33:48.285Z,99577.22
2022-09-16T07:36:19.121Z,99566.28
2022-09-16T07:38:46.594Z,99509.22
2022-09-16T07:41:23.243Z,99523.13
2022-09-16T07:43:50.747Z,99559.50
2022-09-16T07:46:19.873Z,99589.03
2022-09-16T07:48:48.913Z,99573.59
2022-09-16T07:51:18.478Z,99523.06
2022-09-16T07:53:46.581Z,99583.59
2022-09-16T07:56:16.531Z,99595.19
2022-09-16T07:58:45.420Z,99581.59
2022-09-16T08:01:13.318Z,99511.13
2022-09-16T08:03:40.174Z,99519.31
2022-09-16T08:06:09.724Z,99584.66
2022-09-16T08:08:36.832Z,99587.91
2022-09-16T08:11:04.388Z,99596.28
2022-09-16T08:13:33.400Z,99576.03
2022-09-16T08:16:03.483Z,99572.00
2022-09-16T08:18:30.884Z,99584.38
2022-09-16T08:20:59.401Z,99579.69
2022-09-16T08:23:26.001Z,99559.78
2022-09-16T08:25:59.688Z,99592.72
2022-09-16T08:28:39.627Z,99604.31
2022-09-16T08:31:15.092Z,99570.00
2022-09-16T08:33:42.319Z,99574.97
2022-09-16T08:36:23.368Z,99579.06
2022-09-16T08:38:56.970Z,99593.06
2022-09-16T08:41:29.439Z,99589.00
2022-09-16T08:44:14.140Z,99576.63
2022-09-16T08:46:55.371Z,99586.34
2022-09-16T08:49:31.039Z,99578.47
2022-09-16T08:52:00.845Z,99577.00
2022-09-16T08:54:34.709Z,99585.34
2022-09-16T08:57:04.979Z,99563.28
2022-09-16T08:59:39.698Z,99580.47
2022-09-16T09:02:22.249Z,99582.88
2022-09-16T09:04:49.499Z,99571.66
2022-09-16T09:08:00.730Z,99575.00
2022-09-16T09:10:48.423Z,99565.66
2022-09-16T09:13:30.967Z,99572.34
2022-09-16T09:16:12.731Z,99580.03
2022-09-16T09:18:59.417Z,99577.00
2022-09-16T09:21:41.264Z,99589.25
2022-09-16T09:24:07.879Z,99594.66
2022-09-16T09:26:43.667Z,99607.25
2022-09-16T09:29:48.000Z,99612.56
2022-09-16T09:32:48.492Z,99598.50
2022-09-16T09:35:34.727Z,99605.00
2022-09-16T09:38:07.259Z,99607.88
2022-09-16T09:40:46.018Z,99602.84
2022-09-16T09:43:20.738Z,99605.97
2022-09-16T09:45:59.606Z,99602.47
2022-09-16T09:48:33.243Z,99585.38
2022-09-16T09:51:05.701Z,99602.00
2022-09-16T09:53:41.368Z,99572.78
2022-09-16T09:56:07.927Z,99605.00
2022-09-16T09:58:41.156Z,99608.88
2022-09-16T10:01:09.077Z,99607.47
2022-09-16T10:03:37.984Z,99603.28
2022-09-16T10:06:05.021Z,99621.09
2022-09-16T10:08:43.687Z,99621.22
2022-09-16T10:11:22.737Z,99590.31
2022-09-16T10:13:52.253Z,99591.47
2022-09-16T10:16:22.056Z,99620.63
2022-09-16T10:19:06.879Z,99619.53
2022-09-16T10:21:47.651Z,99621.03
2022-09-16T10:24:34.128Z,99619.19
2022-09-16T10:27:03.062Z,99596.03
2022-09-16T10:29:29.786Z,99622.69
2022-09-16T10:31:58.638Z,99577.66
2022-09-16T10:34:34.405Z,99611.78
2022-09-16T10:37:13.301Z,99623.22
2022-09-16T10:39:44.944Z,99583.44
2022-09-16T10:42:23.464Z,99570.69
2022-09-16T10:44:53.599Z,99603.66
2022-09-16T10:47:29.190Z,99603.78
2022-09-16T10:50:03.472Z,99590.38
2022-09-16T10:52:42.988Z,99600.88
2022-09-16T10:55:27.049Z,99605.94
2022-09-16T10:58:05.981Z,99588.78
2022-09-16T11:00:45.627Z,99557.38
2022-09-16T11:03:36.240Z,99586.06
2022-09-16T11:06:08.678Z,99585.47
2022-09-16T11:09:29.419Z,99588.19
2022-09-16T11:11:56.016Z,99602.25
2022-09-16T11:14:31.582Z,99598.84
2022-09-16T11:17:25.264Z,99598.59
2022-09-16T11:20:10.896Z,99588.13
2022-09-16T11:23:06.569Z,99582.78
2022-09-16T11:26:14.747Z,99594.47
2022-09-16T11:28:50.652Z,99594.50
2022-09-16T11:31:20.199Z,99601.41
2022-09-16T11:34:18.275Z,99576.63
2022-09-16T11:37:15.970Z,99566.56
2022-09-16T11:40:01.116Z,99552.28
2022-09-16T11:42:37.392Z,99528.81
2022-09-16T11:45:07.085Z,99506.84
2022-09-16T11:47:37.131Z,99487.97
2022-09-16T11:50:49.811Z,99490.56
2022-09-16T11:53:31.231Z,99502.28
2022-09-16T11:56:18.556Z,99503.69
2022-09-16T11:58:51.025Z,99521.28
2022-09-16T12:01:28.524Z,99477.66
2022-09-16T12:04:26.135Z,99493.19
2022-09-16T12:07:19.743Z,99521.66
2022-09-16T12:09:57.555Z,99489.25
2022-09-16T12:12:31.576Z,99521.47
2022-09-16T12:15:16.418Z,99506.72
2022-09-16T12:17:51.451Z,99489.22
2022-09-16T12:20:29.896Z,99508.22
2022-09-16T12:23:09.904Z,99503.16
2022-09-16T12:26:06.285Z,99522.06
2022-09-16T12:28:40.497Z,99520.69
2022-09-16T12:31:47.521Z,99519.41
2022-09-16T12:34:33.987Z,99508.41
2022-09-16T12:37:15.125Z,99476.72
2022-09-16T12:39:42.756Z,99517.91
2022-09-16T12:42:12.508Z,99509.31
2022-09-16T12:44:47.186Z,99504.69
2022-09-16T12:47:35.662Z,99496.53
2022-09-16T12:50:20.479Z,99478.31
2022-09-16T12:53:03.456Z,99450.38
2022-09-16T12:55:53.601Z,99466.75
2022-09-16T12:58:44.726Z,99488.28
2022-09-16T13:01:25.511Z,99498.81
2022-09-16T13:03:59.654Z,99471.00
2022-09-16T13:06:33.716Z,99461.47
2022-09-16T13:09:15.701Z,99471.06
2022-09-16T13:14:43.365Z,99449.78
2022-09-16T13:17:12.577Z,99453.72
2022-09-16T13:19:52.185Z,99420.75
2022-09-16T13:22:21.680Z,99456.69
2022-09-16T13:25:10.083Z,99463.81
2022-09-16T13:27:52.481Z,99467.06
2022-09-16T13:30:27.897Z,99460.16
2022-09-16T13:32:54.459Z,99451.53
2022-09-16T13:35:35.248Z,99447.53
2022-09-16T13:38:22.531Z,99465.63
2022-09-16T13:41:00.781Z,99467.47
2022-09-16T13:43:37.381Z,99455.84
2022-09-16T13:49:11.119Z,99447.09
2022-09-16T13:51:45.434Z,99442.72
2022-09-16T13:55:10.012Z,99448.94
2022-09-16T13:57:53.175Z,99436.66
2022-09-16T14:00:22.782Z,99426.53
2022-09-16T14:03:13.808Z,99432.47
2022-09-16T14:06:02.102Z,99435.13
2022-09-16T14:08:44.681Z,99435.00
2022-09-16T14:11:52.719Z,99421.06
2022-09-16T14:17:26.067Z,99434.47
2022-09-16T14:19:57.585Z,99443.78
2022-09-16T14:22:27.366Z,99453.66
2022-09-16T14:25:05.812Z,99454.97
2022-09-16T14:27:40.521Z,99471.34
2022-09-16T14:30:14.793Z,99463.56
2022-09-16T14:32:41.569Z,99457.81
2022-09-16T14:35:19.592Z,99466.44
2022-09-16T14:37:49.738Z,99451.97
2022-09-16T14:40:19.830Z,99422.09
2022-09-16T14:42:57.182Z,99435.63
2022-09-16T14:45:24.325Z,99438.28
2022-09-16T14:47:54.432Z,99390.09
2022-09-16T14:50:23.638Z,99429.09
2022-09-16T14:52:59.167Z,99413.00
2022-09-16T14:55:30.275Z,99424.63
2022-09-16T14:57:58.177Z,99419.91
2022-09-16T15:00:46.705Z,99427.88
2022-09-16T15:03:26.141Z,99408.91
2022-09-16T15:05:55.552Z,99399.13
2022-09-16T15:08:39.657Z,99408.78
2022-09-16T15:11:43.560Z,99392.47
2022-09-16T15:14:07.413Z,99391.28
2022-09-16T15:16:39.900Z,99376.31
2022-09-16T15:19:07.076Z,99354.81
2022-09-16T15:21:38.047Z,99340.28
2022-09-16T15:24:16.029Z,99378.47
2022-09-16T15:26:44.998Z,99386.66
2022-09-16T15:29:17.816Z,99383.53
2022-09-16T15:31:45.881Z,99370.97
2022-09-16T15:34:21.666Z,99375.47
2022-09-16T15:36:53.739Z,99380.66
2022-09-16T15:39:39.029Z,99386.56
2022-09-16T15:42:31.930Z,99377.16
2022-09-16T15:45:01.401Z,99384.03
2022-09-16T15:47:54.399Z,99383.56
2022-09-16T15:50:22.741Z,99370.16
2022-09-16T15:52:49.285Z,99392.88
2022-09-16T15:55:56.071Z,99386.44
2022-09-16T15:58:41.882Z,99362.06
2022-09-16T16:01:42.152Z,99400.59
2022-09-16T16:04:11.498Z,99391.28
2022-09-16T16:06:55.224Z,99396.34
2022-09-16T16:09:28.039Z,99397.66
2022-09-16T16:11:59.032Z,99389.81
2022-09-16T16:14:32.241Z,99408.13
2022-09-16T16:17:18.833Z,99418.53
2022-09-16T16:19:47.564Z,99413.84
2022-09-16T16:22:14.865Z,99437.59
2022-09-16T16:24:42.125Z,99415.41
2022-09-16T16:27:09.714Z,99421.88
2022-09-16T16:29:36.701Z,99447.88
2022-09-16T16:32:12.010Z,99452.22
2022-09-16T16:34:41.555Z,99447.25
2022-09-16T16:37:09.701Z,99433.84
2022-09-16T16:39:36.775Z,99441.28
2022-09-16T16:42:05.679Z,99415.38
2022-09-16T16:44:33.266Z,99446.72
2022-09-16T16:47:00.360Z,99433.22
2022-09-16T16:49:27.049Z,99445.53
2022-09-16T16:52:00.453Z,99452.66
2022-09-16T16:54:28.309Z,99463.75
2022-09-16T16:56:55.832Z,99438.16
2022-09-16T16:59:23.753Z,99452.47
2022-09-16T17:01:57.566Z,99449.38
2022-09-16T17:04:25.499Z,99450.41
2022-09-16T17:07:14.443Z,99427.16
2022-09-16T17:09:38.849Z,99434.09
2022-09-16T17:12:05.909Z,99426.31
2022-09-16T17:14:33.425Z,99357.28
2022-09-16T17:17:02.837Z,99417.16
2022-09-16T17:19:29.465Z,99394.53
2022-09-16T17:21:57.727Z,99404.72
2022-09-16T17:24:24.627Z,99365.69
2022-09-16T17:26:52.277Z,99342.94
2022-09-16T17:29:19.042Z,99362.75
2022-09-16T17:31:46.538Z,99376.31
2022-09-16T17:34:15.172Z,99378.53
2022-09-16T17:36:44.863Z,99343.19
2022-09-16T17:39:17.424Z,99371.53
2022-09-16T17:41:45.695Z,99353.44
2022-09-16T17:44:13.750Z,99359.69
2022-09-16T17:46:42.306Z,99341.28
2022-09-16T17:49:18.738Z,99358.00
2022-09-16T17:51:45.424Z,99325.94
2022-09-16T17:54:12.688Z,99370.28
2022-09-16T17:56:39.715Z,99373.03
2022-09-16T17:59:06.375Z,99362.13
2022-09-16T18:01:34.077Z,99337.97
2022-09-16T18:04:02.101Z,99364.13
2022-09-16T18:06:31.799Z,99360.94
2022-09-16T18:09:03.898Z,99369.97
2022-09-16T18:11:30.818Z,99321.66
2022-09-16T18:14:00.697Z,99338.81
2022-09-16T18:16:27.929Z,99371.25
2022-09-16T18:18:58.142Z,99369.22
2022-09-16T18:21:25.829Z,99361.69
2022-09-16T18:23:55.251Z,99370.38
2022-09-16T18:26:22.619Z,99320.81
2022-09-16T18:29:09.072Z,99351.84
2022-09-16T18:31:36.563Z,99388.03
2022-09-16T18:34:03.261Z,99265.47
2022-09-16T18:36:31.944Z,99381.78
2022-09-16T18:38:59.105Z,99389.97
2022-09-16T18:41:28.682Z,99378.03
2022-09-16T18:43:58.858Z,99366.03
2022-09-16T18:46:28.926Z,99369.66
2022-09-16T18:48:56.416Z,99359.22
2022-09-16T18:51:51.996Z,99288.00
2022-09-16T18:54:30.571Z,99362.44
2022-09-16T18:56:59.865Z,99347.94
2022-09-16T18:59:29.143Z,99344.75
2022-09-16T19:01:58.838Z,99298.22
2022-09-16T19:04:27.278Z,99366.69
2022-09-16T19:06:57.049Z,99368.56
2022-09-16T19:09:24.511Z,99378.09
2022-09-16T19:11:54.000Z,99349.81
2022-09-16T19:14:24.262Z,99360.72
2022-09-16T19:16:51.101Z,99273.13
2022-09-16T19:19:17.693Z,99363.16
2022-09-16T19:21:44.517Z,99360.84
2022-09-16T19:24:14.675Z,99370.50
2022-09-16T19:26:42.938Z,99367.94
2022-09-16T19:29:10.785Z,99273.47
2022-09-16T19:31:39.988Z,99327.72
2022-09-16T19:34:07.898Z,99327.06
2022-09-16T19:36:36.376Z,99334.56
2022-09-16T19:39:05.206Z,99310.66
2022-09-16T19:41:33.278Z,99352.16
2022-09-16T19:44:03.822Z,99314.56
2022-09-16T19:46:34.394Z,99206.88
2022-09-16T19:49:01.492Z,99306.31
2022-09-16T19:51:29.106Z,99326.31
2022-09-16T19:53:56.020Z,99343.06
2022-09-16T19:56:25.941Z,99296.38
2022-09-16T19:58:53.718Z,99345.06
2022-09-16T20:01:27.194Z,99317.75
2022-09-16T20:03:54.820Z,99328.34
2022-09-16T20:06:25.976Z,99327.06
2022-09-16T20:08:55.911Z,99300.78
2022-09-16T20:11:25.049Z,99323.34
2022-09-16T20:13:58.232Z,99325.19
2022-09-16T20:16:28.769Z,99335.84
2022-09-16T20:18:55.460Z,99325.47
2022-09-16T20:21:25.134Z,99331.41
2022-09-16T20:23:53.395Z,99337.84
2022-09-16T20:26:20.876Z,99267.06
2022-09-16T20:28:52.963Z,99257.53
2022-09-16T20:31:25.471Z,99352.69
2022-09-16T20:33:52.741Z,99322.81
2022-09-16T20:36:22.596Z,99348.25
2022-09-16T20:38:49.451Z,99354.59
2022-09-16T20:41:19.106Z,99347.59
2022-09-16T20:43:46.611Z,99367.31
2022-09-16T20:46:16.389Z,99354.41
2022-09-16T20:48:43.339Z,99362.13
2022-09-16T20:51:15.394Z,99346.66
2022-09-16T20:53:44.275Z,99366.47
2022-09-16T20:56:13.830Z,99357.59
2022-09-16T20:58:41.543Z,99377.78
2022-09-16T21:01:11.892Z,99378.66
2022-09-16T21:03:39.665Z,99349.84
2022-09-16T21:06:17.276Z,99348.25
2022-09-16T21:08:44.374Z,99343.13
2022-09-16T21:11:12.549Z,99372.41
2022-09-16T21:13:41.425Z,99377.06
2022-09-16T21:16:11.378Z,99361.88
2022-09-16T21:18:39.127Z,99298.53
2022-09-16T21:21:11.488Z,99379.56
2022-09-16T21:23:38.917Z,99321.88
2022-09-16T21:26:15.576Z,99366.78
2022-09-16T21:28:43.468Z,99345.16
2022-09-16T21:31:13.365Z,99322.31
2022-09-16T21:33:41.856Z,99308.19
2022-09-16T21:36:11.411Z,99320.66
2022-09-16T21:38:38.905Z,99272.78
2022-09-16T21:41:09.149Z,99349.84
2022-09-16T21:43:43.495Z,99324.16
2022-09-16T21:46:14.434Z,99315.94
2022-09-16T21:48:42.559Z,99347.72
2022-09-16T21:51:12.653Z,99330.66
2022-09-16T21:53:43.077Z,99349.31
2022-09-16T21:56:15.858Z,99348.78
2022-09-16T21:58:43.009Z,99356.50
2022-09-16T22:01:21.424Z,99348.88
2022-09-16T22:03:55.239Z,99317.25
2022-09-16T22:06:22.687Z,99348.91
2022-09-16T22:08:50.182Z,99305.28
2022-09-16T22:11:18.741Z,99348.31
2022-09-16T22:13:45.793Z,99360.53
2022-09-16T22:16:17.273Z,99369.34
2022-09-16T22:18:45.131Z,99369.66
2022-09-16T22:21:13.721Z,99372.72
2022-09-16T22:23:41.110Z,99344.31
2022-09-16T22:26:10.765Z,99291.63
2022-09-16T22:28:38.356Z,99366.25
2022-09-16T22:31:16.535Z,99380.25
2022-09-16T22:33:44.835Z,99389.34
2022-09-16T22:36:17.306Z,99421.84
2022-09-16T22:38:52.411Z,99412.84
2022-09-16T22:41:19.545Z,99423.66
2022-09-16T22:43:48.255Z,99434.03
2022-09-16T22:46:20.772Z,99407.03
2022-09-16T22:48:48.657Z,99456.50
2022-09-16T22:51:17.011Z,99443.38
2022-09-16T22:53:44.824Z,99425.09
2022-09-16T22:56:13.874Z,99441.56
2022-09-16T22:58:40.660Z,99370.88
2022-09-16T23:01:16.329Z,99441.03
2022-09-16T23:03:44.802Z,99410.47
2022-09-16T23:06:14.374Z,99434.03
2022-09-16T23:08:43.693Z,99412.19
2022-09-16T23:11:14.605Z,99430.84
2022-09-16T23:13:42.355Z,99359.84
2022-09-16T23:16:18.062Z,99427.16
2022-09-16T23:18:46.448Z,99423.66
2022-09-16T23:21:19.453Z,99418.16
2022-09-16T23:23:48.594Z,99393.34
2022-09-16T23:26:23.639Z,99385.50
2022-09-16T23:28:52.791Z,99403.53
2022-09-16T23:31:23.149Z,99379.16
2022-09-16T23:33:50.273Z,99345.78
2022-09-16T23:36:18.087Z,99378.84
2022-09-16T23:38:45.967Z,99349.06
2022-09-16T23:41:19.729Z,99394.00
2022-09-16T23:43:48.042Z,99388.78
2022-09-16T23:46:17.576Z,99385.41
2022-09-16T23:48:44.792Z,99353.41
2022-09-16T23:51:12.451Z,99325.28
2022-09-16T23:53:40.368Z,99391.22
2022-09-16T23:56:08.813Z,99379.13
2022-09-16T23:58:35.499Z,99310.72
